createdAt,value
2018-07-09T00:03:20.400Z,101886.28
2018-07-09T00:08:23.767Z,101883.45
2018-07-09T00:13:27.890Z,101879.53
2018-07-09T00:18:31.415Z,101881.09
2018-07-09T00:23:34.797Z,101876.06
2018-07-09T00:28:38.319Z,101875.69
2018-07-09T00:33:41.733Z,101876.29
2018-07-09T00:38:45.050Z,101877.56
2018-07-09T00:43:48.557Z,101876.78
2018-07-09T00:48:51.970Z,101874.56
2018-07-09T00:53:55.345Z,101872.17
2018-07-09T00:58:58.630Z,101867.16
2018-07-09T01:04:02.028Z,101862.01
2018-07-09T01:09:05.606Z,101858.81
2018-07-09T01:14:09.033Z,101868.66
2018-07-09T01:19:12.161Z,101860.77
2018-07-09T01:24:15.233Z,101859.66
2018-07-09T01:29:18.204Z,101855.19
2018-07-09T01:34:21.357Z,101862.65
2018-07-09T01:39:24.389Z,101858.40
2018-07-09T01:44:27.420Z,101862.59
2018-07-09T01:49:30.423Z,101863.69
2018-07-09T01:54:34.224Z,101855.00
2018-07-09T01:59:37.225Z,101851.88
2018-07-09T02:04:40.246Z,101848.24
2018-07-09T02:09:43.289Z,101839.84
2018-07-09T02:14:46.385Z,101846.13
2018-07-09T02:19:49.394Z,101841.30
2018-07-09T02:24:52.398Z,101846.64
2018-07-09T02:29:55.461Z,101843.77
2018-07-09T02:34:58.472Z,101839.48
2018-07-09T02:40:01.469Z,101832.46
2018-07-09T02:45:04.758Z,101842.78
2018-07-09T02:50:07.753Z,101840.75
2018-07-09T02:55:10.866Z,101845.26
2018-07-09T03:00:13.901Z,101859.22
2018-07-09T03:05:17.077Z,101860.44
2018-07-09T03:10:20.997Z,101855.89
2018-07-09T03:15:24.006Z,101865.97
2018-07-09T03:20:26.988Z,101859.23
2018-07-09T03:25:30.001Z,101839.98
2018-07-09T03:30:33.000Z,101866.50
2018-07-09T03:35:36.026Z,101871.07
2018-07-09T03:40:39.007Z,101865.68
2018-07-09T03:45:42.018Z,101877.45
2018-07-09T03:50:45.035Z,101869.67
2018-07-09T03:55:48.033Z,101863.47
2018-07-09T04:00:51.009Z,101870.60
2018-07-09T04:05:54.002Z,101865.09
2018-07-09T04:10:56.957Z,101871.09
2018-07-09T04:15:59.934Z,101878.00
2018-07-09T04:21:02.926Z,101866.05
2018-07-09T04:26:05.974Z,101865.21
2018-07-09T04:31:08.945Z,101859.59
2018-07-09T04:36:12.049Z,101847.66
2018-07-09T04:41:15.061Z,101850.78
2018-07-09T04:46:18.021Z,101843.14
2018-07-09T04:51:20.985Z,101849.75
2018-07-09T04:56:24.281Z,101847.84
2018-07-09T05:01:27.312Z,101859.20
2018-07-09T05:06:30.338Z,101861.70
2018-07-09T05:11:33.333Z,101871.05
2018-07-09T05:16:36.306Z,101859.05
2018-07-09T05:21:39.323Z,101858.36
2018-07-09T05:26:42.525Z,101858.27
2018-07-09T05:31:45.591Z,101849.94
2018-07-09T05:36:48.597Z,101845.05
2018-07-09T05:41:51.761Z,101838.34
2018-07-09T05:46:54.813Z,101844.53
2018-07-09T05:51:57.810Z,101850.47
2018-07-09T05:57:00.877Z,101858.52
2018-07-09T06:02:03.975Z,101852.34
2018-07-09T06:07:06.973Z,101848.19
2018-07-09T06:12:10.034Z,101848.44
2018-07-09T06:17:13.037Z,101853.20
2018-07-09T06:22:16.044Z,101850.59
2018-07-09T06:27:19.053Z,101850.33
2018-07-09T06:32:22.366Z,101845.55
2018-07-09T06:37:25.390Z,101846.87
2018-07-09T06:42:28.389Z,101846.56
2018-07-09T06:47:31.398Z,101842.20
2018-07-09T06:52:34.401Z,101834.66
2018-07-09T06:57:37.422Z,101833.37
2018-07-09T07:02:40.410Z,101836.50
2018-07-09T07:07:43.466Z,101825.80
2018-07-09T07:12:46.472Z,101820.67
2018-07-09T07:17:49.477Z,101819.05
2018-07-09T07:22:52.641Z,101820.52
2018-07-09T07:27:55.705Z,101825.52
2018-07-09T07:32:59.122Z,101821.06
2018-07-09T07:38:02.225Z,101818.70
2018-07-09T07:43:05.268Z,101813.73
2018-07-09T07:48:08.341Z,101808.95
2018-07-09T07:53:11.470Z,101806.45
2018-07-09T07:58:14.523Z,101807.78
2018-07-09T08:03:17.894Z,101805.81
2018-07-09T08:08:20.952Z,101807.50
2018-07-09T08:13:29.567Z,101800.27
2018-07-09T08:18:27.038Z,101794.55
2018-07-09T08:23:30.077Z,101792.55
2018-07-09T08:28:33.194Z,101787.31
2018-07-09T08:33:36.229Z,101796.41
2018-07-09T08:38:39.299Z,101786.47
2018-07-09T08:43:42.340Z,101783.13
2018-07-09T08:48:45.342Z,101779.52
2018-07-09T08:53:48.348Z,101782.11
2018-07-09T08:58:51.373Z,101771.80
2018-07-09T09:03:54.388Z,101777.00
2018-07-09T09:08:57.450Z,101771.88
2018-07-09T09:14:00.497Z,101765.77
2018-07-09T09:19:03.537Z,101775.38
2018-07-09T09:24:06.629Z,101772.46
2018-07-09T09:29:09.685Z,101791.39
2018-07-09T09:34:12.790Z,101792.56
2018-07-09T09:39:15.842Z,101787.06
2018-07-09T09:44:18.865Z,101794.69
2018-07-09T09:49:21.918Z,101797.28
2018-07-09T09:54:24.959Z,101793.39
2018-07-09T09:59:27.970Z,101788.59
2018-07-09T10:04:31.551Z,101790.16
2018-07-09T10:09:35.130Z,101791.41
2018-07-09T10:14:38.141Z,101782.26
2018-07-09T10:19:41.268Z,101764.70
2018-07-09T10:24:44.342Z,101761.64
2018-07-09T10:29:47.346Z,101755.37
2018-07-09T10:34:50.377Z,101761.95
2018-07-09T10:39:53.393Z,101752.82
2018-07-09T10:44:56.453Z,101761.53
2018-07-09T10:49:59.488Z,101749.43
2018-07-09T10:55:02.562Z,101742.70
2018-07-09T11:00:05.681Z,101736.03
2018-07-09T11:05:08.749Z,101731.47
2018-07-09T11:10:11.797Z,101723.03
2018-07-09T11:15:14.828Z,101726.68
2018-07-09T11:20:17.927Z,101711.93
2018-07-09T11:25:20.982Z,101709.38
2018-07-09T11:30:24.058Z,101706.31
2018-07-09T11:35:27.185Z,101692.03
2018-07-09T11:40:30.248Z,101682.38
2018-07-09T11:45:33.328Z,101679.29
2018-07-09T11:50:36.408Z,101668.75
2018-07-09T11:55:39.421Z,101675.02
2018-07-09T12:00:42.458Z,101670.38
2018-07-09T12:05:45.474Z,101670.02
2018-07-09T12:10:48.538Z,101660.96
2018-07-09T12:15:51.614Z,101663.44
2018-07-09T12:20:54.621Z,101641.41
2018-07-09T12:25:57.648Z,101635.59
2018-07-09T12:31:00.667Z,101647.69
2018-07-09T12:36:05.300Z,101656.55
2018-07-09T12:41:08.293Z,101649.03
2018-07-09T12:46:11.326Z,101639.70
2018-07-09T12:51:14.369Z,101645.84
2018-07-09T12:56:17.377Z,101638.65
2018-07-09T13:01:20.413Z,101643.51
2018-07-09T13:06:23.441Z,101635.28
2018-07-09T13:11:26.518Z,101637.63
2018-07-09T13:16:29.625Z,101626.41
2018-07-09T13:21:32.781Z,101628.25
2018-07-09T13:26:35.805Z,101616.58
2018-07-09T13:31:38.866Z,101632.44
2018-07-09T13:36:41.964Z,101617.38
2018-07-09T13:41:45.081Z,101613.30
2018-07-09T13:46:48.533Z,101611.39
2018-07-09T13:51:51.598Z,101608.19
2018-07-09T13:56:54.650Z,101605.22
2018-07-09T14:01:57.761Z,101595.72
2018-07-09T14:07:00.899Z,101592.96
2018-07-09T14:12:04.077Z,101596.56
2018-07-09T14:17:07.190Z,101593.81
2018-07-09T14:22:10.197Z,101596.52
2018-07-09T14:27:13.210Z,101600.09
2018-07-09T14:32:16.207Z,101626.63
2018-07-09T14:37:19.238Z,101617.13
2018-07-09T14:42:22.686Z,101602.27
2018-07-09T14:47:25.706Z,101606.50
2018-07-09T14:52:29.333Z,101593.96
2018-07-09T14:57:32.385Z,101586.16
2018-07-09T15:02:35.562Z,101577.77
2018-07-09T15:07:38.569Z,101575.84
2018-07-09T15:12:41.613Z,101579.53
2018-07-09T15:17:44.697Z,101560.55
2018-07-09T15:22:47.754Z,101571.52
2018-07-09T15:27:50.970Z,101563.38
2018-07-09T15:32:54.006Z,101550.98
2018-07-09T15:37:57.038Z,101558.16
2018-07-09T15:43:00.026Z,101558.55
2018-07-09T15:48:03.078Z,101554.06
2018-07-09T15:53:06.139Z,101557.70
2018-07-09T15:58:09.166Z,101547.83
2018-07-09T16:03:12.238Z,101546.80
2018-07-09T16:08:15.251Z,101541.16
2018-07-09T16:13:18.286Z,101546.16
2018-07-09T16:18:21.286Z,101534.59
2018-07-09T16:23:24.334Z,101527.70
2018-07-09T16:28:27.416Z,101531.70
2018-07-09T16:33:30.494Z,101532.56
2018-07-09T16:38:33.530Z,101518.70
2018-07-09T16:43:36.529Z,101509.93
2018-07-09T16:48:39.576Z,101509.91
2018-07-09T16:53:42.955Z,101505.78
2018-07-09T16:58:46.029Z,101507.45
2018-07-09T17:03:49.166Z,101516.71
2018-07-09T17:08:52.217Z,101506.78
2018-07-09T17:13:55.306Z,101504.34
2018-07-09T17:18:58.368Z,101496.41
2018-07-09T17:24:01.488Z,101492.72
2018-07-09T17:29:04.678Z,101484.28
2018-07-09T17:34:09.111Z,101484.34
2018-07-09T17:39:12.254Z,101487.86
2018-07-09T17:44:15.534Z,101490.36
2018-07-09T17:49:18.585Z,101493.77
2018-07-09T17:54:22.461Z,101485.33
2018-07-09T17:59:25.465Z,101482.98
2018-07-09T18:04:28.542Z,101483.22
2018-07-09T18:09:31.773Z,101483.35
2018-07-09T18:14:34.970Z,101482.78
2018-07-09T18:19:38.296Z,101475.23
2018-07-09T18:24:41.326Z,101480.42
2018-07-09T18:29:44.478Z,101479.17
2018-07-09T18:34:47.563Z,101488.36
2018-07-09T18:39:50.699Z,101478.55
2018-07-09T18:44:53.997Z,101472.50
2018-07-09T18:49:57.179Z,101475.14
2018-07-09T18:55:00.297Z,101479.36
2018-07-09T19:00:03.926Z,101478.89
2018-07-09T19:05:08.159Z,101482.64
2018-07-09T19:10:11.324Z,101479.92
2018-07-09T19:15:14.445Z,101476.86
2018-07-09T19:20:35.516Z,101479.92
2018-07-09T19:25:37.529Z,101479.81
2018-07-09T19:30:39.097Z,101482.72
2018-07-09T19:35:40.665Z,101483.34
2018-07-09T19:40:42.311Z,101473.76
2018-07-09T19:45:43.916Z,101472.92
2018-07-09T19:50:45.793Z,101459.52
2018-07-09T19:55:47.257Z,101458.39
2018-07-09T20:00:48.900Z,101454.28
2018-07-09T20:05:50.393Z,101454.48
2018-07-09T20:10:57.648Z,101454.67
2018-07-09T20:16:04.888Z,101457.95
2018-07-09T20:21:06.378Z,101452.87
2018-07-09T20:26:07.877Z,101453.64
2018-07-09T20:31:09.365Z,101450.73
2018-07-09T20:36:10.871Z,101455.70
2018-07-09T20:41:12.471Z,101456.13
2018-07-09T20:46:13.958Z,101454.17
2018-07-09T20:51:15.462Z,101441.55
2018-07-09T20:56:17.436Z,101448.44
2018-07-09T21:01:18.979Z,101437.37
2018-07-09T21:06:20.635Z,101439.16
2018-07-09T21:11:22.143Z,101432.23
2018-07-09T21:16:23.769Z,101442.59
2018-07-09T21:21:28.661Z,101433.08
2018-07-09T21:26:30.166Z,101438.49
2018-07-09T21:31:31.669Z,101436.58
2018-07-09T21:36:33.194Z,101438.54
2018-07-09T21:41:34.741Z,101440.70
2018-07-09T21:46:36.365Z,101436.81
2018-07-09T21:51:37.897Z,101430.67
2018-07-09T21:56:39.429Z,101428.76
2018-07-09T22:01:41.269Z,101420.92
2018-07-09T22:06:42.781Z,101414.62
2018-07-09T22:11:44.281Z,101424.80
2018-07-09T22:16:45.790Z,101420.36
2018-07-09T22:21:48.078Z,101417.70
2018-07-09T22:26:50.405Z,101420.39
2018-07-09T22:31:53.490Z,101409.19
2018-07-09T22:36:56.497Z,101405.98
2018-07-09T22:41:59.515Z,101403.84
2018-07-09T22:47:02.546Z,101404.72
2018-07-09T22:52:06.001Z,101394.56
2018-07-09T22:57:09.447Z,101404.84
2018-07-09T23:02:12.523Z,101398.86
2018-07-09T23:07:15.693Z,101375.03
2018-07-09T23:12:37.539Z,101390.24
2018-07-09T23:17:57.949Z,101387.66
2018-07-09T23:22:59.417Z,101383.42
2018-07-09T23:28:00.921Z,101383.53
2018-07-09T23:33:02.434Z,101387.42
2018-07-09T23:38:03.933Z,101382.63
2018-07-09T23:43:05.415Z,101377.88
2018-07-09T23:48:06.921Z,101371.59
2018-07-09T23:53:08.447Z,101344.17
